createdAt,value
2023-09-11T00:01:42.376Z,11.88
2023-09-11T00:04:11.735Z,12.13
2023-09-11T00:06:39.752Z,11.85
2023-09-11T00:09:08.307Z,11.50
2023-09-11T00:11:36.328Z,11.65
2023-09-11T00:14:04.300Z,11.50
2023-09-11T00:16:32.385Z,12.75
2023-09-11T00:19:00.346Z,11.43
2023-09-11T00:21:29.647Z,12.00
2023-09-11T00:23:57.620Z,11.70
2023-09-11T00:26:25.670Z,11.30
2023-09-11T00:28:54.628Z,11.43
2023-09-11T00:31:22.910Z,11.80
2023-09-11T00:33:51.983Z,11.43
2023-09-11T00:36:20.350Z,12.27
2023-09-11T00:38:51.652Z,11.27
2023-09-11T00:41:19.935Z,10.75
2023-09-11T00:43:47.966Z,11.00
2023-09-11T00:46:15.943Z,11.40
2023-09-11T00:48:44.108Z,12.02
2023-09-11T00:51:12.125Z,11.35
2023-09-11T00:53:40.164Z,12.00
2023-09-11T00:56:09.513Z,11.20
2023-09-11T00:58:37.439Z,11.75
2023-09-11T01:01:05.437Z,11.40
2023-09-11T01:03:33.571Z,11.20
2023-09-11T01:06:01.758Z,10.85
2023-09-11T01:08:29.813Z,11.75
2023-09-11T01:10:58.169Z,11.38
2023-09-11T01:13:27.524Z,10.60
2023-09-11T01:16:01.667Z,11.07
2023-09-11T01:18:30.373Z,10.50
2023-09-11T01:21:02.214Z,11.38
2023-09-11T01:23:39.345Z,11.05
2023-09-11T01:26:08.281Z,9.82
2023-09-11T01:28:45.419Z,10.90
2023-09-11T01:31:14.860Z,10.90
2023-09-11T01:33:42.926Z,11.25
2023-09-11T01:36:11.005Z,10.43
2023-09-11T01:38:39.436Z,10.68
2023-09-11T01:41:07.656Z,10.43
2023-09-11T01:43:37.037Z,10.82
2023-09-11T01:46:04.990Z,10.35
2023-09-11T01:48:34.373Z,11.35
2023-09-11T01:51:02.882Z,11.05
2023-09-11T01:53:30.807Z,11.43
2023-09-11T01:55:59.493Z,11.05
2023-09-11T01:58:27.522Z,10.52
2023-09-11T02:00:55.488Z,10.95
2023-09-11T02:03:23.641Z,10.65
2023-09-11T02:05:53.115Z,10.80
2023-09-11T02:08:21.181Z,11.10
2023-09-11T02:10:49.187Z,11.18
2023-09-11T02:13:17.181Z,10.32
2023-09-11T02:15:45.267Z,11.27
2023-09-11T02:18:13.378Z,10.20
2023-09-11T02:20:41.451Z,10.43
2023-09-11T02:23:10.808Z,10.30
2023-09-11T02:25:39.006Z,10.05
2023-09-11T02:28:07.196Z,10.43
2023-09-11T02:30:35.199Z,10.60
2023-09-11T02:33:03.683Z,10.63
2023-09-11T02:35:32.466Z,10.57
2023-09-11T02:38:00.573Z,10.95
2023-09-11T02:40:29.941Z,9.63
2023-09-11T02:42:57.991Z,10.95
2023-09-11T02:45:26.595Z,9.32
2023-09-11T02:47:54.623Z,10.85
2023-09-11T02:50:24.284Z,10.38
2023-09-11T02:52:52.302Z,10.80
2023-09-11T02:55:20.242Z,10.50
2023-09-11T02:57:49.571Z,10.43
2023-09-11T03:00:17.828Z,10.60
2023-09-11T03:02:46.802Z,10.82
2023-09-11T03:05:14.932Z,10.73
2023-09-11T03:07:43.251Z,11.52
2023-09-11T03:10:11.628Z,10.80
2023-09-11T03:12:39.795Z,10.55
2023-09-11T03:15:10.004Z,10.50
2023-09-11T03:17:39.124Z,10.48
2023-09-11T03:20:08.542Z,10.55
2023-09-11T03:22:36.601Z,10.82
2023-09-11T03:25:04.770Z,10.80
2023-09-11T03:27:32.893Z,11.13
2023-09-11T03:30:00.983Z,11.25
2023-09-11T03:32:30.585Z,11.77
2023-09-11T03:34:58.669Z,10.73
2023-09-11T03:37:26.966Z,11.60
2023-09-11T03:39:58.363Z,10.82
2023-09-11T03:42:26.641Z,11.60
2023-09-11T03:44:54.849Z,12.23
2023-09-11T03:47:23.082Z,10.43
2023-09-11T03:49:52.507Z,11.32
2023-09-11T03:52:20.688Z,11.32
2023-09-11T03:54:48.703Z,12.10
2023-09-11T03:57:16.973Z,11.63
2023-09-11T03:59:45.264Z,10.95
2023-09-11T04:02:13.277Z,12.23
2023-09-11T04:04:41.375Z,11.57
2023-09-11T04:07:10.712Z,10.50
2023-09-11T04:09:38.594Z,11.35
2023-09-11T04:12:07.671Z,10.93
2023-09-11T04:14:38.571Z,11.43
2023-09-11T04:17:06.826Z,11.73
2023-09-11T04:19:34.957Z,11.98
2023-09-11T04:22:02.987Z,11.50
2023-09-11T04:24:32.406Z,11.50
2023-09-11T04:27:00.526Z,11.75
2023-09-11T04:29:30.189Z,11.05
2023-09-11T04:31:58.226Z,11.90
2023-09-11T04:34:26.289Z,11.23
2023-09-11T04:36:54.286Z,11.32
2023-09-11T04:39:23.984Z,11.63
2023-09-11T04:41:53.696Z,11.40
2023-09-11T04:44:22.121Z,11.93
2023-09-11T04:46:50.218Z,11.93
2023-09-11T04:49:18.223Z,11.57
2023-09-11T04:51:46.178Z,12.55
2023-09-11T04:54:14.269Z,11.52
2023-09-11T04:56:43.554Z,11.50
2023-09-11T04:59:13.107Z,12.35
2023-09-11T05:01:41.092Z,12.77
2023-09-11T05:04:09.279Z,12.10
2023-09-11T05:06:37.436Z,12.27
2023-09-11T05:09:11.550Z,11.35
2023-09-11T05:11:42.662Z,11.95
2023-09-11T05:14:10.770Z,13.18
2023-09-11T05:16:40.134Z,12.68
2023-09-11T05:19:08.219Z,12.07
2023-09-11T05:21:37.745Z,13.23
2023-09-11T05:24:05.873Z,14.18
2023-09-11T05:26:33.990Z,12.82
2023-09-11T05:29:02.025Z,12.43
2023-09-11T05:31:29.978Z,13.55
2023-09-11T05:33:59.328Z,13.73
2023-09-11T05:36:27.404Z,13.27
2023-09-11T05:38:55.404Z,13.25
2023-09-11T05:41:23.597Z,13.45
2023-09-11T05:43:51.530Z,13.25
2023-09-11T05:46:19.570Z,12.63
2023-09-11T05:48:47.726Z,13.80
2023-09-11T05:51:17.250Z,13.60
2023-09-11T05:53:45.259Z,14.68
2023-09-11T05:56:13.504Z,13.07
2023-09-11T05:58:41.560Z,14.27
2023-09-11T06:01:09.792Z,13.88
2023-09-11T06:03:37.876Z,13.50
2023-09-11T06:06:06.069Z,14.63
2023-09-11T06:08:35.560Z,19.85
2023-09-11T06:11:03.909Z,20.80
2023-09-11T06:13:32.553Z,22.95
2023-09-11T06:16:00.525Z,22.80
2023-09-11T06:18:28.645Z,21.52
2023-09-11T06:20:56.825Z,22.45
2023-09-11T06:23:24.941Z,22.85
2023-09-11T06:25:54.302Z,24.02
2023-09-11T06:28:22.209Z,22.40
2023-09-11T06:30:50.164Z,22.05
2023-09-11T06:33:18.397Z,23.63
2023-09-11T06:35:46.627Z,22.63
2023-09-11T06:38:14.690Z,23.23
2023-09-11T06:40:42.716Z,22.73
2023-09-11T06:43:12.098Z,23.42
2023-09-11T06:45:40.324Z,22.75
2023-09-11T06:48:08.709Z,23.90
2023-09-11T06:50:36.794Z,23.55
2023-09-11T06:53:05.044Z,23.10
2023-09-11T06:55:33.216Z,22.73
2023-09-11T06:58:02.439Z,22.73
2023-09-11T07:00:31.692Z,23.00
2023-09-11T07:02:59.703Z,22.23
2023-09-11T07:05:28.952Z,22.70
2023-09-11T07:07:57.095Z,23.52
2023-09-11T07:10:38.232Z,20.67
2023-09-11T07:13:08.530Z,22.85
2023-09-11T07:15:37.942Z,19.60
2023-09-11T07:18:06.320Z,20.92
2023-09-11T07:20:34.412Z,19.15
2023-09-11T07:23:02.394Z,20.98
2023-09-11T07:25:30.402Z,21.10
2023-09-11T07:27:58.532Z,20.40
2023-09-11T07:30:27.142Z,19.15
2023-09-11T07:32:56.682Z,19.15
2023-09-11T07:35:24.797Z,19.40
2023-09-11T07:37:52.822Z,18.20
2023-09-11T07:40:20.998Z,17.85
2023-09-11T07:42:49.053Z,18.63
2023-09-11T07:45:17.169Z,18.42
2023-09-11T07:47:45.572Z,17.75
2023-09-11T07:50:15.207Z,16.13
2023-09-11T07:52:43.531Z,16.70
2023-09-11T07:55:11.536Z,16.27
2023-09-11T07:57:41.361Z,14.63
2023-09-11T08:00:09.948Z,14.23
2023-09-11T08:02:38.380Z,13.30
2023-09-11T08:05:06.497Z,13.07
2023-09-11T08:07:36.088Z,13.35
2023-09-11T08:10:06.867Z,12.95
2023-09-11T08:12:35.534Z,12.40
2023-09-11T08:15:04.327Z,12.43
2023-09-11T08:17:32.944Z,11.63
2023-09-11T08:20:00.887Z,10.98
2023-09-11T08:22:28.859Z,13.00
2023-09-11T08:24:58.230Z,11.38
2023-09-11T08:27:26.157Z,11.50
2023-09-11T08:29:56.671Z,12.23
2023-09-11T08:32:24.948Z,11.48
2023-09-11T08:34:52.993Z,11.93
2023-09-11T08:37:20.978Z,11.02
2023-09-11T08:39:48.925Z,11.23
2023-09-11T08:42:18.323Z,11.25
2023-09-11T08:44:46.444Z,11.88
2023-09-11T08:47:16.010Z,12.15
2023-09-11T08:49:45.222Z,10.43
2023-09-11T08:52:14.662Z,10.88
2023-09-11T08:54:43.558Z,11.27
2023-09-11T08:57:11.848Z,10.38
2023-09-11T08:59:42.130Z,11.43
2023-09-11T09:02:10.078Z,10.38
2023-09-11T09:04:38.511Z,11.73
2023-09-11T09:07:07.075Z,9.98
2023-09-11T09:09:35.227Z,9.73
2023-09-11T09:12:03.307Z,11.07
2023-09-11T09:14:31.895Z,10.73
2023-09-11T09:17:03.352Z,10.10
2023-09-11T09:19:31.296Z,11.60
2023-09-11T09:22:12.089Z,9.50
2023-09-11T09:24:47.965Z,9.40
2023-09-11T09:27:15.940Z,10.43
2023-09-11T09:29:43.951Z,9.48
2023-09-11T09:32:13.324Z,9.73
2023-09-11T09:34:44.094Z,10.20
2023-09-11T09:37:16.493Z,9.38
2023-09-11T09:39:45.354Z,11.30
2023-09-11T09:42:13.632Z,9.65
2023-09-11T09:44:42.194Z,11.07
2023-09-11T09:47:10.810Z,11.40
2023-09-11T09:49:44.954Z,11.52
2023-09-11T09:52:13.569Z,11.07
2023-09-11T09:54:45.407Z,9.65
2023-09-11T09:57:14.249Z,11.43
2023-09-11T09:59:42.706Z,10.88
2023-09-11T10:02:11.514Z,9.65
2023-09-11T10:04:39.524Z,10.50
2023-09-11T10:07:08.903Z,9.77
2023-09-11T10:09:37.020Z,11.90
2023-09-11T10:12:05.822Z,11.35
2023-09-11T10:14:33.972Z,10.38
2023-09-11T10:17:01.965Z,10.93
2023-09-11T10:19:30.132Z,10.60
2023-09-11T10:21:58.220Z,9.90
2023-09-11T10:24:27.452Z,11.93
2023-09-11T10:26:57.079Z,11.57
2023-09-11T10:29:27.350Z,10.25
2023-09-11T10:31:55.965Z,11.02
2023-09-11T10:34:24.947Z,10.10
2023-09-11T10:36:54.176Z,10.45
2023-09-11T10:39:22.132Z,10.25
2023-09-11T10:41:51.594Z,11.77
2023-09-11T10:44:19.719Z,10.52
2023-09-11T10:46:51.160Z,10.15
2023-09-11T10:49:19.405Z,10.70
2023-09-11T10:51:47.430Z,10.30
2023-09-11T10:54:15.886Z,10.60
2023-09-11T10:56:44.536Z,11.13
2023-09-11T10:59:15.924Z,10.68
2023-09-11T11:01:45.517Z,10.57
2023-09-11T11:04:15.088Z,11.45
2023-09-11T11:06:44.603Z,9.98
2023-09-11T11:09:32.386Z,10.20
2023-09-11T11:12:03.836Z,10.85
2023-09-11T11:14:33.362Z,11.65
2023-09-11T11:17:03.200Z,10.88
2023-09-11T11:19:31.504Z,13.57
2023-09-11T11:22:00.575Z,15.27
2023-09-11T11:24:29.982Z,11.43
2023-09-11T11:26:58.155Z,13.73
2023-09-11T11:29:27.585Z,12.57
2023-09-11T11:31:59.239Z,11.35
2023-09-11T11:34:29.438Z,11.18
2023-09-11T11:36:59.330Z,12.43
2023-09-11T11:39:27.995Z,11.63
2023-09-11T11:41:56.459Z,12.40
2023-09-11T11:44:25.121Z,12.60
2023-09-11T11:46:53.224Z,11.90
2023-09-11T11:49:22.649Z,11.40
2023-09-11T11:51:51.727Z,10.63
2023-09-11T11:54:21.915Z,12.80
2023-09-11T11:56:49.805Z,11.30
2023-09-11T11:59:17.793Z,11.48
2023-09-11T12:01:46.061Z,11.38
2023-09-11T12:04:14.193Z,11.35
2023-09-11T12:06:43.627Z,10.80
2023-09-11T12:09:12.002Z,10.85
2023-09-11T12:11:40.592Z,11.18
2023-09-11T12:14:13.193Z,10.77
2023-09-11T12:16:41.238Z,11.05
2023-09-11T12:19:09.289Z,9.57
2023-09-11T12:21:37.262Z,10.65
2023-09-11T12:24:10.139Z,10.50
2023-09-11T12:26:38.152Z,10.65
2023-09-11T12:29:06.188Z,11.73
2023-09-11T12:31:34.158Z,11.27
2023-09-11T12:34:02.108Z,11.55
2023-09-11T12:36:31.942Z,11.20
2023-09-11T12:39:00.085Z,10.95
2023-09-11T12:41:31.716Z,11.52
2023-09-11T12:44:01.017Z,10.02
2023-09-11T12:46:29.093Z,9.98
2023-09-11T12:48:57.155Z,9.70
2023-09-11T12:51:25.221Z,10.05
2023-09-11T12:53:53.254Z,9.52
2023-09-11T12:56:21.777Z,8.75
2023-09-11T12:58:51.083Z,9.63
2023-09-11T13:01:19.027Z,8.93
2023-09-11T13:03:47.926Z,8.98
2023-09-11T13:06:16.284Z,7.72
2023-09-11T13:08:45.307Z,8.20
2023-09-11T13:11:13.228Z,8.15
2023-09-11T13:13:41.206Z,7.60
2023-09-11T13:16:10.604Z,7.90
2023-09-11T13:18:38.629Z,8.07
2023-09-11T13:21:06.681Z,7.93
2023-09-11T13:23:34.704Z,8.32
2023-09-11T13:26:02.841Z,9.13
2023-09-11T13:28:30.787Z,8.68
2023-09-11T13:31:00.985Z,8.93
2023-09-11T13:33:30.659Z,8.57
2023-09-11T13:35:58.748Z,8.80
2023-09-11T13:38:26.733Z,8.25
2023-09-11T13:40:54.713Z,8.52
2023-09-11T13:43:22.794Z,8.85
2023-09-11T13:45:50.780Z,8.00
2023-09-11T13:48:18.807Z,8.43
2023-09-11T13:50:48.356Z,8.35
2023-09-11T13:53:16.481Z,8.15
2023-09-11T13:55:44.627Z,8.25
2023-09-11T13:58:12.740Z,7.75
2023-09-11T14:00:40.777Z,8.07
2023-09-11T14:03:09.266Z,8.15
2023-09-11T14:05:46.752Z,7.65
2023-09-11T14:08:17.046Z,7.97
2023-09-11T14:10:45.839Z,8.43
2023-09-11T14:13:13.839Z,8.00
2023-09-11T14:15:41.893Z,9.43
2023-09-11T14:18:10.145Z,9.07
2023-09-11T14:20:38.203Z,8.10
2023-09-11T14:23:06.398Z,8.15
2023-09-11T14:25:35.834Z,8.70
2023-09-11T14:28:04.544Z,9.50
2023-09-11T14:30:32.528Z,9.20
2023-09-11T14:33:01.638Z,8.73
2023-09-11T14:35:29.980Z,8.90
2023-09-11T14:37:58.231Z,8.75
2023-09-11T14:40:26.330Z,8.07
2023-09-11T14:42:55.955Z,8.20
2023-09-11T14:45:24.158Z,8.60
2023-09-11T14:47:52.211Z,7.60
2023-09-11T14:50:20.245Z,7.82
2023-09-11T14:52:48.187Z,7.45
2023-09-11T14:55:16.278Z,7.18
2023-09-11T14:57:44.240Z,7.53
2023-09-11T15:00:14.487Z,7.45
2023-09-11T15:02:42.691Z,7.10
2023-09-11T15:05:11.084Z,7.22
2023-09-11T15:07:39.357Z,8.25
2023-09-11T15:10:07.688Z,7.03
2023-09-11T15:12:36.076Z,7.50
2023-09-11T15:15:04.320Z,7.78
2023-09-11T15:17:33.794Z,7.22
2023-09-11T15:20:01.821Z,7.57
2023-09-11T15:22:29.825Z,6.55
2023-09-11T15:24:59.573Z,6.68
2023-09-11T15:27:27.670Z,7.15
2023-09-11T15:29:55.808Z,7.55
2023-09-11T15:32:24.241Z,7.50
2023-09-11T15:34:53.771Z,7.63
2023-09-11T15:37:21.767Z,7.57
2023-09-11T15:39:50.244Z,6.38
2023-09-11T15:42:18.379Z,6.93
2023-09-11T15:44:47.635Z,7.43
2023-09-11T15:47:15.732Z,6.65
2023-09-11T15:49:43.848Z,6.65
2023-09-11T15:52:13.163Z,6.45
2023-09-11T15:54:41.110Z,6.75
2023-09-11T15:57:10.318Z,6.68
2023-09-11T15:59:38.493Z,6.47
2023-09-11T16:02:06.544Z,6.28
2023-09-11T16:04:34.739Z,6.30
2023-09-11T16:07:02.972Z,6.10
2023-09-11T16:09:32.816Z,6.03
2023-09-11T16:12:00.966Z,6.53
2023-09-11T16:14:29.458Z,6.85
2023-09-11T16:17:00.835Z,7.10
2023-09-11T16:19:28.887Z,6.43
2023-09-11T16:21:56.839Z,5.65
2023-09-11T16:24:24.814Z,6.53
2023-09-11T16:26:54.179Z,6.10
2023-09-11T16:29:22.195Z,6.10
2023-09-11T16:31:50.134Z,6.03
2023-09-11T16:34:18.080Z,6.30
2023-09-11T16:36:46.045Z,5.95
2023-09-11T16:39:14.068Z,5.68
2023-09-11T16:41:43.371Z,6.43
2023-09-11T16:44:13.929Z,6.03
2023-09-11T16:46:41.995Z,6.47
2023-09-11T16:49:10.082Z,11.70
2023-09-11T16:51:38.005Z,12.10
2023-09-11T16:54:06.223Z,11.18
2023-09-11T16:56:34.126Z,10.27
2023-09-11T16:59:02.104Z,9.73
2023-09-11T17:01:31.568Z,10.40
2023-09-11T17:04:00.082Z,9.43
2023-09-11T17:06:28.262Z,8.93
2023-09-11T17:08:56.393Z,8.40
2023-09-11T17:11:24.436Z,9.57
2023-09-11T17:13:53.353Z,8.98
2023-09-11T17:16:22.816Z,8.10
2023-09-11T17:18:53.158Z,7.95
2023-09-11T17:21:21.230Z,9.13
2023-09-11T17:23:50.404Z,10.02
2023-09-11T17:26:18.682Z,12.18
2023-09-11T17:28:46.605Z,11.82
2023-09-11T17:31:14.513Z,13.20
2023-09-11T17:33:42.735Z,12.38
2023-09-11T17:36:13.782Z,12.40
2023-09-11T17:38:42.025Z,15.15
2023-09-11T17:41:10.277Z,15.77
2023-09-11T17:43:38.251Z,16.90
2023-09-11T17:46:06.313Z,18.25
2023-09-11T17:48:34.394Z,19.15
2023-09-11T17:51:02.420Z,19.27
2023-09-11T17:53:31.817Z,19.52
2023-09-11T17:55:59.743Z,19.33
2023-09-11T17:58:27.656Z,18.42
2023-09-11T18:00:55.792Z,18.63
2023-09-11T18:03:23.959Z,17.30
2023-09-11T18:05:52.135Z,17.95
2023-09-11T18:08:20.089Z,17.70
2023-09-11T18:10:49.384Z,17.48
2023-09-11T18:13:18.562Z,16.45
2023-09-11T18:15:47.842Z,16.25
2023-09-11T18:18:16.041Z,17.08
2023-09-11T18:20:45.415Z,18.40
2023-09-11T18:23:13.479Z,19.15
2023-09-11T18:25:41.403Z,18.05
2023-09-11T18:28:11.318Z,18.52
2023-09-11T18:30:40.596Z,18.15
2023-09-11T18:33:08.812Z,18.27
2023-09-11T18:35:36.910Z,17.38
2023-09-11T18:38:05.165Z,17.52
2023-09-11T18:40:33.206Z,17.02
2023-09-11T18:43:01.267Z,17.85
2023-09-11T18:45:30.630Z,17.67
2023-09-11T18:47:58.727Z,18.15
2023-09-11T18:50:26.846Z,17.38
2023-09-11T18:52:54.977Z,16.50
2023-09-11T18:55:22.895Z,18.52
2023-09-11T18:57:50.890Z,20.02
2023-09-11T19:00:19.068Z,19.30
2023-09-11T19:02:48.509Z,22.65
2023-09-11T19:05:16.608Z,19.75
2023-09-11T19:07:44.595Z,21.30
2023-09-11T19:10:13.100Z,19.83
2023-09-11T19:12:41.902Z,20.98
2023-09-11T19:15:10.268Z,20.80
2023-09-11T19:17:38.337Z,21.23
2023-09-11T19:20:08.705Z,22.08
2023-09-11T19:22:37.179Z,23.15
2023-09-11T19:25:05.425Z,23.02
2023-09-11T19:27:35.163Z,23.85
2023-09-11T19:30:03.646Z,24.60
2023-09-11T19:32:31.851Z,26.50
2023-09-11T19:34:59.954Z,26.23
2023-09-11T19:37:29.381Z,26.35
2023-09-11T19:39:57.391Z,27.80
2023-09-11T19:42:25.462Z,27.65
2023-09-11T19:44:54.408Z,27.50
2023-09-11T19:47:22.995Z,28.73
2023-09-11T19:49:50.976Z,28.25
2023-09-11T19:52:18.963Z,28.58
2023-09-11T19:54:48.346Z,29.42
2023-09-11T19:57:21.275Z,27.98
2023-09-11T19:59:49.708Z,30.27
2023-09-11T20:02:19.256Z,30.65
2023-09-11T20:04:47.677Z,33.03
2023-09-11T20:07:15.806Z,34.28
2023-09-11T20:09:43.812Z,31.55
2023-09-11T20:12:13.334Z,32.40
2023-09-11T20:14:41.613Z,34.40
2023-09-11T20:17:10.620Z,32.85
2023-09-11T20:19:38.584Z,30.33
2023-09-11T20:22:06.498Z,28.08
2023-09-11T20:24:34.590Z,23.63
2023-09-11T20:27:02.662Z,27.20
2023-09-11T20:29:31.984Z,28.58
2023-09-11T20:32:00.192Z,28.45
2023-09-11T20:34:28.123Z,27.00
2023-09-11T20:36:56.147Z,25.90
2023-09-11T20:39:25.108Z,27.80
2023-09-11T20:41:53.147Z,27.70
2023-09-11T20:44:21.772Z,26.58
2023-09-11T20:46:51.152Z,20.85
2023-09-11T20:49:19.176Z,19.45
2023-09-11T20:51:47.185Z,25.77
2023-09-11T20:54:15.201Z,25.60
2023-09-11T20:56:43.577Z,27.75
2023-09-11T20:59:11.483Z,28.17
2023-09-11T21:01:39.542Z,29.77
2023-09-11T21:04:11.478Z,24.52
2023-09-11T21:06:39.747Z,29.05
2023-09-11T21:09:07.986Z,29.17
2023-09-11T21:11:36.014Z,26.85
2023-09-11T21:14:03.978Z,25.80
2023-09-11T21:16:35.607Z,27.63
2023-09-11T21:19:03.910Z,26.25
2023-09-11T21:21:33.329Z,28.60
2023-09-11T21:24:01.370Z,28.40
2023-09-11T21:26:29.506Z,27.05
2023-09-11T21:28:59.726Z,22.38
2023-09-11T21:31:27.757Z,24.60
2023-09-11T21:33:55.948Z,24.75
2023-09-11T21:36:24.036Z,28.63
2023-09-11T21:38:53.482Z,26.77
2023-09-11T21:41:21.435Z,28.65
2023-09-11T21:43:49.930Z,31.35
2023-09-11T21:46:21.498Z,31.13
2023-09-11T21:48:49.631Z,23.52
2023-09-11T21:51:17.761Z,25.98
2023-09-11T21:53:48.221Z,24.83
2023-09-11T21:56:23.525Z,31.40
2023-09-11T21:58:51.478Z,25.83
2023-09-11T22:01:19.581Z,29.65
2023-09-11T22:03:47.713Z,29.45
2023-09-11T22:06:15.878Z,23.92
2023-09-11T22:08:44.330Z,25.02
2023-09-11T22:11:12.290Z,27.95
2023-09-11T22:13:41.891Z,24.35
2023-09-11T22:16:10.174Z,29.52
2023-09-11T22:18:38.494Z,27.58
2023-09-11T22:21:06.589Z,28.98
2023-09-11T22:23:34.649Z,28.70
2023-09-11T22:26:02.725Z,31.83
2023-09-11T22:28:30.813Z,32.80
2023-09-11T22:31:00.196Z,30.73
2023-09-11T22:33:28.283Z,30.30
2023-09-11T22:35:56.341Z,29.60
2023-09-11T22:38:24.258Z,30.08
2023-09-11T22:40:52.299Z,25.17
2023-09-11T22:43:22.861Z,27.80
2023-09-11T22:45:50.925Z,24.35
2023-09-11T22:48:20.449Z,25.65
2023-09-11T22:50:48.479Z,34.38
2023-09-11T22:53:16.741Z,22.33
2023-09-11T22:55:45.619Z,26.45
2023-09-11T22:58:13.605Z,25.02
2023-09-11T23:00:44.518Z,25.20
2023-09-11T23:03:12.560Z,22.75
2023-09-11T23:05:41.985Z,22.77
2023-09-11T23:08:09.902Z,22.70
2023-09-11T23:10:37.809Z,22.88
2023-09-11T23:13:05.703Z,21.70
2023-09-11T23:15:33.706Z,22.02
2023-09-11T23:18:03.331Z,20.23
2023-09-11T23:20:31.393Z,19.38
2023-09-11T23:23:00.731Z,20.48
2023-09-11T23:25:28.707Z,20.27
2023-09-11T23:27:56.643Z,21.75
2023-09-11T23:30:28.230Z,21.60
2023-09-11T23:32:56.344Z,18.98
2023-09-11T23:35:24.370Z,18.50
2023-09-11T23:37:52.329Z,20.38
2023-09-11T23:40:21.741Z,18.67
2023-09-11T23:42:49.728Z,18.52
2023-09-11T23:45:17.777Z,18.15
2023-09-11T23:47:45.752Z,19.27
2023-09-11T23:50:13.660Z,20.88
2023-09-11T23:52:41.700Z,20.65
2023-09-11T23:55:10.825Z,20.05
2023-09-11T23:57:40.284Z,17.92
